• Join FlightAware (Why Join?)
  • Login
  • US Flag 
07:15AM EST


 

Airport Tracker/Info


-or-


 

Live Flight TrackerFlight Track Log ✈ USC3802 ✈ 21-Feb-2012 ✈ KICT - KOMA

Flight Track Log - Related Links

Times and Time Zones

All times are in EST time to prevent confusion due to time zone crossing. See the USC3802 flight status page for this flight to view local times or setup timezone preferences in your user account.

Time Position Orientation Groundspeed Altitude Reporting Facility
EST Latitude Longitude Course Direction KTS MPH feet Rate Location/Type
08:26AM 37.6394 -97.4328 172° South 101 116 1,900  Level Kansas City Center
08:27AM 37.6231 -97.4297 89° East 113 130 3,000 1,560 Climbing Kansas City Center
08:28AM 37.6239 -97.3878 15° North 119 137 4,500 1,380 Climbing Kansas City Center
08:29AM 37.6514 -97.3783 15° North 98 113 5,900 1,200 Climbing Kansas City Center
08:30AM 37.6786 -97.3689 21° North 111 128 7,000 480 Climbing Kansas City Center
08:31AM 37.7250 -97.3469 15° North 169 194 6,900 -60 Descending Kansas City Center
08:32AM 37.7733 -97.3303 20° North 177 204 6,900  Level Kansas City Center
08:33AM 37.8197 -97.3083 20° North 181 208 6,900  Level Kansas City Center
08:34AM 37.8619 -97.2889 16° North 188 216 7,000  Climbing Kansas City Center
08:35AM 37.9083 -97.2722 16° North 188 216 7,000  Level Kansas City Center
08:36AM 37.9544 -97.2556 17° North 188 216 7,000  Level Kansas City Center
08:37AM 38.0031 -97.2361 19° North 183 211 7,000  Level Kansas City Center
08:38AM 38.0472 -97.2167 16° North 177 204 7,000  Level Kansas City Center
08:39AM 38.0933 -97.2000 14° North 172 198 7,000  Level Kansas City Center
08:40AM 38.1397 -97.1858 18° North 167 192 7,000  Level Kansas City Center
08:41AM 38.1861 -97.1664 14° North 167 192 7,000  Level Kansas City Center
08:42AM 38.2322 -97.1522 19° North 167 192 7,000  Level Kansas City Center
08:43AM 38.2764 -97.1325 19° North 167 192 7,000  Level Kansas City Center
08:44AM 38.3206 -97.1128 20° North 167 192 7,000  Level Kansas City Center
08:45AM 38.3628 -97.0933 13° North 167 192 7,000  Level Kansas City Center
08:46AM 38.4111 -97.0789 19° North 167 192 7,000 -60 Level Kansas City Center
08:47AM 38.4617 -97.0569 19° North 167 192 6,900 -60 Descending Kansas City Center
08:48AM 38.5078 -97.0372 17° North 167 192 6,900  Level Kansas City Center
08:49AM 38.5519 -97.0203 15° North 167 192 6,900  Level Kansas City Center
08:50AM 38.5939 -97.0056 16° North 167 192 6,900  Level Kansas City Center
08:51AM 38.6403 -96.9886 17° North 167 192 6,900  Level Kansas City Center
08:52AM 38.6906 -96.9692 19° North 167 192 6,900  Level Kansas City Center
08:53AM 38.7350 -96.9492 16° North 167 192 6,900  Level Kansas City Center
08:54AM 38.7811 -96.9322 15° North 167 192 6,900  Level Kansas City Center
08:55AM 38.8231 -96.9175 16° North 167 192 6,900  Level Kansas City Center
08:56AM 38.8692 -96.9003 16° North 167 192 6,900  Level Kansas City Center
08:57AM 38.9217 -96.8808 19° North 167 192 6,900  Level Kansas City Center
08:58AM 38.9681 -96.8608 16° North 167 192 6,900  Level Kansas City Center
08:59AM 39.0142 -96.8436 17° North 167 192 6,900  Level Kansas City Center
09:00AM 39.0583 -96.8264 18° North 172 198 6,900  Level Kansas City Center
09:01AM 39.1108 -96.8039 18° North 172 198 6,900  Level Kansas City Center
09:02AM 39.1592 -96.7842 18° North 172 198 6,900  Level Kansas City Center
09:03AM 39.2056 -96.7642 17° North 172 198 6,900  Level Kansas City Center
09:04AM 39.2558 -96.7442 15° North 172 198 6,900  Level Kansas City Center
09:05AM 39.2978 -96.7294 16° North 172 198 6,900  Level Kansas City Center
09:06AM 39.3439 -96.7122 18° North 172 198 6,900  Level Kansas City Center
09:07AM 39.3986 -96.6894 20° North 172 198 6,900  Level Kansas City Center
09:08AM 39.4469 -96.6669 20° North 172 198 6,900  Level Kansas City Center
09:09AM 39.4953 -96.6442 15° North 172 198 6,900  Level Kansas City Center
09:10AM 39.5394 -96.6292 16° North 177 204 6,900  Level Kansas City Center
09:11AM 39.5917 -96.6092 19° North 177 204 6,900 -60 Level Kansas City Center
09:13AM 39.6828 -96.5692 16° North 187 215 6,800  Descending Minneapolis Center
09:14AM 39.7269 -96.5522 17° North 187 215 7,000 60 Climbing Minneapolis Center
09:15AM 39.7753 -96.5331 14° North 182 209 7,000  Level Minneapolis Center
09:16AM 39.8256 -96.5167 18° North 182 209 7,000  Level Minneapolis Center
09:17AM 39.8761 -96.4947 16° North 187 215 7,000  Level Minneapolis Center
09:18AM 39.9264 -96.4756 18° North 187 215 7,000  Level Minneapolis Center
09:19AM 39.9728 -96.4561 16° North 187 215 7,000  Level Minneapolis Center
09:20AM 40.0233 -96.4369 21° North 187 215 7,000  Level Minneapolis Center
09:21AM 40.0717 -96.4122 14° North 187 215 7,000  Level Minneapolis Center
09:22AM 40.1219 -96.3956 21° North 187 215 7,000  Level Minneapolis Center
09:23AM 40.1706 -96.3706 17° North 187 215 7,000  Level Minneapolis Center
09:24AM 40.2189 -96.3511 16° North 187 215 7,000  Level Minneapolis Center
09:25AM 40.2694 -96.3317 16° North 187 215 7,000  Level Minneapolis Center
09:26AM 40.3197 -96.3122 16° North 187 215 7,000  Level Minneapolis Center
09:27AM 40.3703 -96.2928 107° East 187 215 7,000  Level Minneapolis Center
09:27AM 40.3664 -96.2764 North 187 215 7,000  Level Minneapolis Center
09:28AM 40.4208 -96.2706 43° Northeast 187 215 7,000  Level Minneapolis Center
09:28AM 40.4422 -96.2444 349° North 187 215 7,000  Level Minneapolis Center
09:29AM 40.4692 -96.2511 36° Northeast 187 215 7,000  Level Minneapolis Center
09:30AM 40.4967 -96.2250 347° North 186 214 7,000  Level Minneapolis Center
09:30AM 40.5175 -96.2314 38° Northeast 187 215 7,000  Level Minneapolis Center
09:30AM 40.5408 -96.2078 354° North 186 214 7,000  Level Minneapolis Center
09:31AM 40.5678 -96.2117 33° Northeast 187 215 7,000  Level Minneapolis Center
09:32AM 40.5956 -96.1883 352° North 185 213 7,000  Level Minneapolis Center
09:32AM 40.6161 -96.1919 29° Northeast 187 215 7,000  Level Minneapolis Center
09:33AM 40.6481 -96.1689 359° North 185 213 7,000  Level Minneapolis Center
09:33AM 40.6644 -96.1694 29° Northeast 187 215 7,000  Level Minneapolis Center
09:34AM 40.6964 -96.1464 359° North 186 214 7,000  Level Minneapolis Center
09:34AM 40.7131 -96.1469 29° Northeast 187 215 7,000  Level Minneapolis Center
09:35AM 40.7447 -96.1239 359° North 186 214 7,000  Level Minneapolis Center
09:35AM 40.7614 -96.1244 24° Northeast 187 215 7,000  Level Minneapolis Center
09:36AM 40.7953 -96.1042 359° North 186 214 7,000  Level Minneapolis Center
09:36AM 40.8117 -96.1047 27° Northeast 187 215 7,000  Level Minneapolis Center
09:37AM 40.8456 -96.0817 North 186 214 7,000  Level Minneapolis Center
09:37AM 40.8603 -96.0794 28° Northeast 187 215 7,000  Level Minneapolis Center
09:37AM 40.8856 -96.0614 359° North 186 214 7,000  Level Minneapolis Center
09:38AM 40.9106 -96.0622 30° Northeast 187 215 7,000  Level Minneapolis Center
09:38AM 40.9339 -96.0442 North 187 215 7,000  Level Minneapolis Center
09:39AM 40.9589 -96.0397 16° North 187 215 7,000  Level Minneapolis Center
09:40AM 40.9925 -96.0272 18° North 185 213 7,000 -240 Level Minneapolis Center
09:40AM 41.0094 -96.0197 19° North 187 215 6,800 -780 Descending Minneapolis Center
09:40AM 41.0367 -96.0072 18° North 193 222 6,300 -900 Descending Minneapolis Center
09:41AM 41.0597 -95.9972 32° Northeast 187 215 5,900 -1,140 Descending Minneapolis Center
09:41AM 41.0853 -95.9761 32° Northeast 208 239 5,300 -1,140 Descending Minneapolis Center
09:42AM 41.1108 -95.9553 23° Northeast 194 223 4,800 -1,020 Descending Minneapolis Center
09:42AM 41.1339 -95.9425 23° Northeast 203 234 4,300 -1,260 Descending Minneapolis Center
09:43AM 41.1889 -95.9117 18° North 185 213 2,800 -1,080 Descending Minneapolis Center
09:44AM 41.2244 -95.8964 North 170 196 2,200 -720 Descending Minneapolis Center
09:45AM 41.2661 -95.8897 North 153 176 1,500 -720 Descending Minneapolis Center